createdAt,value
2023-03-17T00:01:45.956Z,3.45
2023-03-17T00:04:13.701Z,3.18
2023-03-17T00:06:40.849Z,3.09
2023-03-17T00:09:12.999Z,3.34
2023-03-17T00:11:39.677Z,3.33
2023-03-17T00:14:06.304Z,3.11
2023-03-17T00:16:38.695Z,3.13
2023-03-17T00:19:05.654Z,3.01
2023-03-17T00:21:34.452Z,2.76
2023-03-17T00:24:01.780Z,3.01
2023-03-17T00:26:28.887Z,3.00
2023-03-17T00:28:55.665Z,3.00
2023-03-17T00:31:25.942Z,2.90
2023-03-17T00:33:54.692Z,2.95
2023-03-17T00:36:30.657Z,3.08
2023-03-17T00:38:58.658Z,3.78
2023-03-17T00:41:26.263Z,3.35
2023-03-17T00:43:53.260Z,3.58
2023-03-17T00:46:27.938Z,3.22
2023-03-17T00:48:55.415Z,3.26
2023-03-17T00:51:22.814Z,3.50
2023-03-17T00:53:49.502Z,3.38
2023-03-17T00:56:19.017Z,3.36
2023-03-17T00:58:46.345Z,3.48
2023-03-17T01:01:13.294Z,3.58
2023-03-17T01:03:40.912Z,3.61
2023-03-17T01:06:12.474Z,3.44
2023-03-17T01:08:40.394Z,3.45
2023-03-17T01:11:07.245Z,3.52
2023-03-17T01:13:33.995Z,3.88
2023-03-17T01:16:00.831Z,3.69
2023-03-17T01:18:27.649Z,3.61
2023-03-17T01:20:54.546Z,3.74
2023-03-17T01:23:21.259Z,3.75
2023-03-17T01:25:47.947Z,3.65
2023-03-17T01:28:17.010Z,3.77
2023-03-17T01:30:44.344Z,3.83
2023-03-17T01:33:12.668Z,3.64
2023-03-17T01:35:40.076Z,3.38
2023-03-17T01:38:07.017Z,3.51
2023-03-17T01:40:41.789Z,3.49
2023-03-17T01:43:08.382Z,3.40
2023-03-17T01:46:12.565Z,3.07
2023-03-17T01:48:42.206Z,3.43
2023-03-17T01:51:18.778Z,3.55
2023-03-17T01:53:49.709Z,3.20
2023-03-17T01:56:17.064Z,3.28
2023-03-17T01:58:48.846Z,3.33
2023-03-17T02:01:15.558Z,3.43
2023-03-17T02:03:42.792Z,3.41
2023-03-17T02:06:09.974Z,3.29
2023-03-17T02:08:36.633Z,3.21
2023-03-17T02:11:05.046Z,3.34
2023-03-17T02:13:32.564Z,3.30
2023-03-17T02:15:59.232Z,3.13
2023-03-17T02:18:25.850Z,3.11
2023-03-17T02:21:26.349Z,3.36
2023-03-17T02:23:53.038Z,3.36
2023-03-17T02:26:23.946Z,3.37
2023-03-17T02:28:50.616Z,3.27
2023-03-17T02:31:17.771Z,3.44
2023-03-17T02:33:44.467Z,3.39
2023-03-17T02:36:11.102Z,3.25
2023-03-17T02:38:37.838Z,3.52
2023-03-17T02:41:06.104Z,3.44
2023-03-17T02:43:32.831Z,3.77
2023-03-17T02:45:59.488Z,3.53
2023-03-17T02:48:26.199Z,3.46
2023-03-17T02:50:52.984Z,3.65
2023-03-17T02:53:19.857Z,3.30
2023-03-17T02:55:46.650Z,3.46
2023-03-17T02:58:13.299Z,3.29
2023-03-17T03:00:39.946Z,3.36
2023-03-17T03:03:06.567Z,3.39
2023-03-17T03:05:33.280Z,3.27
2023-03-17T03:08:00.053Z,3.72
2023-03-17T03:10:26.775Z,3.69
2023-03-17T03:12:53.385Z,3.94
2023-03-17T03:15:20.160Z,3.74
2023-03-17T03:17:47.052Z,3.62
2023-03-17T03:20:13.708Z,3.86
2023-03-17T03:22:40.860Z,4.10
2023-03-17T03:25:07.753Z,4.03
2023-03-17T03:27:35.166Z,3.84
2023-03-17T03:30:02.283Z,4.02
2023-03-17T03:32:28.963Z,3.92
2023-03-17T03:34:55.618Z,3.91
2023-03-17T03:37:22.235Z,4.08
2023-03-17T03:39:48.967Z,3.93
2023-03-17T03:42:18.160Z,4.00
2023-03-17T03:44:44.825Z,3.86
2023-03-17T03:47:12.942Z,3.99
2023-03-17T03:49:39.735Z,3.96
2023-03-17T03:52:06.618Z,4.13
2023-03-17T03:54:33.375Z,4.14
2023-03-17T03:57:00.102Z,4.22
2023-03-17T03:59:26.819Z,4.03
2023-03-17T04:01:53.468Z,3.85
2023-03-17T04:04:20.330Z,4.01
2023-03-17T04:06:47.004Z,4.05
2023-03-17T04:09:13.718Z,4.24
2023-03-17T04:11:40.410Z,3.85
2023-03-17T04:14:07.202Z,4.62
2023-03-17T04:16:33.886Z,4.49
2023-03-17T04:19:00.554Z,4.07
2023-03-17T04:21:29.948Z,4.00
2023-03-17T04:23:56.622Z,3.96
2023-03-17T04:26:23.392Z,3.97
2023-03-17T04:28:50.026Z,4.02
2023-03-17T04:31:16.692Z,4.39
2023-03-17T04:33:43.364Z,4.10
2023-03-17T04:36:18.079Z,4.32
2023-03-17T04:38:44.961Z,4.44
2023-03-17T04:41:12.272Z,4.41
2023-03-17T04:43:39.257Z,4.50
2023-03-17T04:46:05.949Z,4.43
2023-03-17T04:48:32.574Z,4.36
2023-03-17T04:50:59.326Z,4.53
2023-03-17T04:53:25.989Z,4.19
2023-03-17T04:55:52.953Z,4.32
2023-03-17T04:58:30.361Z,4.27
2023-03-17T05:00:58.318Z,4.06
2023-03-17T05:03:27.543Z,3.91
2023-03-17T05:05:54.881Z,3.83
2023-03-17T05:08:21.569Z,3.83
2023-03-17T05:10:48.343Z,3.88
2023-03-17T05:13:14.993Z,3.89
2023-03-17T05:15:47.994Z,3.98
2023-03-17T05:18:15.500Z,4.29
2023-03-17T05:20:42.263Z,4.15
2023-03-17T05:23:08.888Z,4.09
2023-03-17T05:25:36.223Z,4.03
2023-03-17T05:28:03.605Z,3.94
2023-03-17T05:30:30.495Z,4.07
2023-03-17T05:32:57.458Z,4.33
2023-03-17T05:35:24.533Z,4.04
2023-03-17T05:37:51.224Z,4.17
2023-03-17T05:40:17.948Z,4.36
2023-03-17T05:42:44.580Z,4.20
2023-03-17T05:45:11.863Z,4.13
2023-03-17T05:47:38.634Z,4.29
2023-03-17T05:50:05.744Z,4.12
2023-03-17T05:52:32.415Z,4.51
2023-03-17T05:54:59.045Z,4.35
2023-03-17T05:57:25.770Z,4.85
2023-03-17T05:59:52.482Z,4.91
2023-03-17T06:02:19.188Z,4.67
2023-03-17T06:04:45.903Z,4.91
2023-03-17T06:07:12.894Z,4.61
2023-03-17T06:09:39.672Z,4.68
2023-03-17T06:12:06.851Z,4.67
2023-03-17T06:14:33.777Z,4.61
2023-03-17T06:17:00.408Z,4.84
2023-03-17T06:19:27.141Z,4.44
2023-03-17T06:21:53.791Z,4.70
2023-03-17T06:24:20.539Z,4.24
2023-03-17T06:26:47.209Z,4.55
2023-03-17T06:29:13.866Z,4.78
2023-03-17T06:31:41.052Z,4.93
2023-03-17T06:34:07.983Z,4.63
2023-03-17T06:36:36.409Z,4.56
2023-03-17T06:39:04.286Z,4.54
2023-03-17T06:41:30.957Z,4.66
2023-03-17T06:43:57.561Z,4.82
2023-03-17T06:46:24.320Z,4.68
2023-03-17T06:48:51.104Z,4.70
2023-03-17T06:51:17.756Z,4.68
2023-03-17T06:53:44.473Z,4.51
2023-03-17T06:56:20.136Z,4.83
2023-03-17T06:58:54.035Z,4.71
2023-03-17T07:01:20.713Z,4.75
2023-03-17T07:03:47.492Z,4.75
2023-03-17T07:06:14.141Z,4.69
2023-03-17T07:08:40.792Z,5.01
2023-03-17T07:11:07.567Z,4.93
2023-03-17T07:13:34.183Z,5.02
2023-03-17T07:16:01.794Z,5.03
2023-03-17T07:18:29.375Z,4.75
2023-03-17T07:20:56.122Z,4.84
2023-03-17T07:23:23.027Z,4.87
2023-03-17T07:25:50.703Z,4.92
2023-03-17T07:28:17.379Z,4.61
2023-03-17T07:30:44.227Z,4.78
2023-03-17T07:33:11.090Z,4.82
2023-03-17T07:35:38.095Z,4.68
2023-03-17T07:38:05.091Z,4.21
2023-03-17T07:40:34.804Z,4.25
2023-03-17T07:43:02.006Z,4.58
2023-03-17T07:45:28.873Z,5.15
2023-03-17T07:47:55.792Z,5.03
2023-03-17T07:50:22.423Z,5.07
2023-03-17T07:52:49.230Z,4.78
2023-03-17T07:55:15.879Z,5.45
2023-03-17T07:57:42.998Z,5.87
2023-03-17T08:00:10.516Z,5.90
2023-03-17T08:02:37.406Z,6.24
2023-03-17T08:05:05.020Z,6.68
2023-03-17T08:07:31.640Z,6.91
2023-03-17T08:09:58.335Z,6.85
2023-03-17T08:12:25.741Z,6.99
2023-03-17T08:14:52.765Z,7.44
2023-03-17T08:17:19.384Z,7.16
2023-03-17T08:19:46.055Z,6.68
2023-03-17T08:22:15.310Z,7.29
2023-03-17T08:24:41.982Z,7.15
2023-03-17T08:27:08.734Z,6.82
2023-03-17T08:29:35.431Z,6.46
2023-03-17T08:32:02.462Z,6.37
2023-03-17T08:34:29.256Z,5.25
2023-03-17T08:36:55.902Z,4.60
2023-03-17T08:39:22.613Z,4.75
2023-03-17T08:41:49.321Z,4.64
2023-03-17T08:44:16.222Z,4.53
2023-03-17T08:46:43.244Z,4.64
2023-03-17T08:49:10.594Z,4.28
2023-03-17T08:51:38.824Z,4.32
2023-03-17T08:54:06.789Z,3.84
2023-03-17T08:56:37.997Z,3.24
2023-03-17T08:59:07.056Z,3.19
2023-03-17T09:01:33.843Z,3.19
2023-03-17T09:04:00.854Z,2.97
2023-03-17T09:06:27.522Z,3.59
2023-03-17T09:08:54.310Z,6.27
2023-03-17T09:11:27.573Z,6.90
2023-03-17T09:13:55.146Z,8.82
2023-03-17T09:16:22.652Z,9.11
2023-03-17T09:18:50.185Z,8.73
2023-03-17T09:21:17.454Z,8.39
2023-03-17T09:23:44.344Z,8.37
2023-03-17T09:26:11.650Z,8.33
2023-03-17T09:28:38.711Z,7.89
2023-03-17T09:31:06.877Z,7.80
2023-03-17T09:33:33.524Z,6.64
2023-03-17T09:36:00.346Z,4.85
2023-03-17T09:38:27.806Z,4.13
2023-03-17T09:41:18.200Z,4.21
2023-03-17T09:44:04.950Z,4.00
2023-03-17T09:46:50.345Z,4.84
2023-03-17T09:49:24.856Z,6.75
2023-03-17T09:51:52.505Z,8.11
2023-03-17T09:54:27.566Z,7.88
2023-03-17T09:57:04.267Z,7.91
2023-03-17T09:59:40.078Z,8.80
2023-03-17T10:02:28.589Z,10.63
2023-03-17T10:04:56.229Z,11.02
2023-03-17T10:07:54.149Z,11.20
2023-03-17T10:10:34.755Z,11.14
2023-03-17T10:13:18.724Z,10.36
2023-03-17T10:16:00.201Z,7.56
2023-03-17T10:18:33.471Z,5.57
2023-03-17T10:21:06.573Z,6.49
2023-03-17T10:23:36.101Z,4.51
2023-03-17T10:26:13.729Z,2.64
2023-03-17T10:28:40.743Z,3.66
2023-03-17T10:31:28.754Z,3.31
2023-03-17T10:33:58.506Z,3.09
2023-03-17T10:36:40.377Z,3.56
2023-03-17T10:39:10.565Z,3.20
2023-03-17T10:41:41.622Z,2.93
2023-03-17T10:44:20.606Z,2.94
2023-03-17T10:46:54.488Z,2.82
2023-03-17T10:49:21.149Z,3.41
2023-03-17T10:51:52.086Z,3.88
2023-03-17T10:54:20.815Z,4.77
2023-03-17T10:56:50.524Z,4.42
2023-03-17T10:59:28.370Z,5.15
2023-03-17T11:02:24.337Z,5.13
2023-03-17T11:04:54.809Z,3.89
2023-03-17T11:07:41.593Z,3.66
2023-03-17T11:10:26.642Z,3.56
2023-03-17T11:13:00.785Z,3.44
2023-03-17T11:15:53.403Z,3.17
2023-03-17T11:18:24.668Z,3.30
2023-03-17T11:20:58.016Z,3.13
2023-03-17T11:23:48.921Z,3.28
2023-03-17T11:26:50.700Z,3.10
2023-03-17T11:29:23.117Z,2.93
2023-03-17T11:32:00.583Z,2.94
2023-03-17T11:34:29.976Z,2.97
2023-03-17T11:37:13.225Z,2.79
2023-03-17T11:40:10.498Z,2.93
2023-03-17T11:43:06.101Z,2.99
2023-03-17T11:46:06.572Z,3.31
2023-03-17T11:48:35.997Z,3.36
2023-03-17T11:51:26.354Z,3.47
2023-03-17T11:54:17.891Z,3.57
2023-03-17T11:56:56.072Z,4.06
2023-03-17T11:59:25.363Z,3.30
2023-03-17T12:02:10.693Z,4.01
2023-03-17T12:04:50.651Z,4.40
2023-03-17T12:07:25.708Z,3.96
2023-03-17T12:10:03.269Z,3.77
2023-03-17T12:12:44.136Z,3.59
2023-03-17T12:15:22.286Z,3.36
2023-03-17T12:17:59.780Z,3.66
2023-03-17T12:20:39.128Z,3.77
2023-03-17T12:23:25.242Z,3.50
2023-03-17T12:26:07.382Z,3.77
2023-03-17T12:29:04.054Z,3.71
2023-03-17T12:31:38.252Z,3.53
2023-03-17T12:34:30.867Z,3.34
2023-03-17T12:36:58.316Z,3.25
2023-03-17T12:39:32.529Z,3.33
2023-03-17T12:42:02.076Z,3.12
2023-03-17T12:44:40.200Z,2.90
2023-03-17T12:47:22.107Z,3.13
2023-03-17T12:50:00.918Z,3.02
2023-03-17T12:53:05.619Z,2.86
2023-03-17T12:55:34.609Z,2.81
2023-03-17T12:58:37.559Z,2.86
2023-03-17T13:01:41.997Z,2.78
2023-03-17T13:04:14.601Z,2.63
2023-03-17T13:07:11.713Z,2.94
2023-03-17T13:10:10.169Z,2.83
2023-03-17T13:12:39.845Z,2.85
2023-03-17T13:15:22.740Z,2.76
2023-03-17T13:17:50.406Z,2.50
2023-03-17T13:20:19.860Z,2.47
2023-03-17T13:23:11.504Z,2.24
2023-03-17T13:25:38.063Z,2.54
2023-03-17T13:28:13.546Z,2.29
2023-03-17T13:30:40.224Z,2.51
2023-03-17T13:33:13.875Z,2.42
2023-03-17T13:36:16.683Z,2.51
2023-03-17T13:39:20.850Z,2.39
2023-03-17T13:41:54.478Z,2.48
2023-03-17T13:44:30.267Z,2.22
2023-03-17T13:47:16.810Z,2.29
2023-03-17T13:49:48.946Z,2.44
2023-03-17T13:52:23.881Z,2.36
2023-03-17T13:55:01.976Z,2.34
2023-03-17T13:57:37.760Z,2.41
2023-03-17T14:00:20.560Z,2.14
2023-03-17T14:02:49.965Z,2.22
2023-03-17T14:05:29.755Z,2.15
2023-03-17T14:08:01.279Z,2.26
2023-03-17T14:10:31.262Z,2.19
2023-03-17T14:13:16.385Z,2.36
2023-03-17T14:15:58.423Z,2.39
2023-03-17T14:18:35.764Z,2.02
2023-03-17T14:21:08.797Z,2.18
2023-03-17T14:23:36.610Z,2.25
2023-03-17T14:26:04.076Z,2.19
2023-03-17T14:28:35.826Z,1.92
2023-03-17T14:31:06.130Z,2.28
2023-03-17T14:33:37.948Z,2.12
2023-03-17T14:36:09.072Z,2.02
2023-03-17T14:38:39.674Z,2.01
2023-03-17T14:41:24.192Z,2.11
2023-03-17T14:43:53.778Z,2.02
2023-03-17T14:46:32.515Z,1.99
2023-03-17T14:49:03.873Z,2.02
2023-03-17T14:51:37.622Z,2.25
2023-03-17T14:54:21.563Z,2.47
2023-03-17T14:57:02.209Z,2.41
2023-03-17T14:59:41.290Z,1.97
2023-03-17T15:02:17.738Z,2.16
2023-03-17T15:05:06.184Z,2.23
2023-03-17T15:07:37.138Z,2.03
2023-03-17T15:10:05.149Z,2.06
2023-03-17T15:12:31.890Z,2.04
2023-03-17T15:15:08.656Z,2.07
2023-03-17T15:17:37.290Z,1.96
2023-03-17T15:20:17.125Z,1.77
2023-03-17T15:22:56.088Z,1.95
2023-03-17T15:25:44.753Z,1.63
2023-03-17T15:28:14.943Z,1.82
2023-03-17T15:30:50.237Z,1.72
2023-03-17T15:33:30.760Z,1.54
2023-03-17T15:35:57.793Z,1.65
2023-03-17T15:38:24.852Z,1.71
2023-03-17T15:40:51.644Z,1.67
2023-03-17T15:43:20.004Z,1.77
2023-03-17T15:45:48.854Z,1.74
2023-03-17T15:48:22.330Z,1.61
2023-03-17T15:50:51.348Z,1.94
2023-03-17T15:53:19.314Z,1.81
2023-03-17T15:55:46.042Z,1.65
2023-03-17T15:58:13.051Z,1.80
2023-03-17T16:00:40.242Z,1.67
2023-03-17T16:03:16.145Z,1.82
2023-03-17T16:05:43.023Z,1.84
2023-03-17T16:08:14.715Z,1.86
2023-03-17T16:10:41.648Z,1.76
2023-03-17T16:13:08.273Z,1.76
2023-03-17T16:15:39.452Z,1.82
2023-03-17T16:18:13.765Z,1.42
2023-03-17T16:20:42.650Z,1.51
2023-03-17T16:23:14.496Z,1.56
2023-03-17T16:25:41.347Z,1.50
2023-03-17T16:28:22.045Z,1.34
2023-03-17T16:30:50.500Z,1.47
2023-03-17T16:33:27.093Z,1.53
2023-03-17T16:35:54.325Z,1.50
2023-03-17T16:38:24.163Z,1.46
2023-03-17T16:40:53.756Z,1.61
2023-03-17T16:43:28.576Z,1.83
2023-03-17T16:45:59.205Z,2.38
2023-03-17T16:48:26.693Z,2.26
2023-03-17T16:50:54.206Z,1.96
2023-03-17T16:53:21.208Z,2.29
2023-03-17T16:55:48.806Z,2.25
2023-03-17T16:58:28.539Z,2.06
2023-03-17T17:01:01.054Z,2.14
2023-03-17T17:03:28.923Z,1.98
2023-03-17T17:05:55.870Z,1.94
2023-03-17T17:08:22.579Z,1.80
2023-03-17T17:10:49.425Z,1.92
2023-03-17T17:13:16.463Z,1.63
2023-03-17T17:15:46.440Z,1.62
2023-03-17T17:18:19.857Z,1.72
2023-03-17T17:20:46.571Z,1.69
2023-03-17T17:23:18.099Z,1.71
2023-03-17T17:25:45.257Z,1.83
2023-03-17T17:28:14.765Z,1.85
2023-03-17T17:30:41.804Z,1.79
2023-03-17T17:33:09.123Z,1.89
2023-03-17T17:35:36.952Z,1.81
2023-03-17T17:38:16.617Z,1.67
2023-03-17T17:40:43.318Z,1.56
2023-03-17T17:43:10.193Z,1.57
2023-03-17T17:45:37.128Z,1.53
2023-03-17T17:48:04.011Z,1.84
2023-03-17T17:50:31.545Z,1.64
2023-03-17T17:52:58.293Z,1.68
2023-03-17T17:55:25.054Z,1.64
2023-03-17T17:57:52.537Z,1.80
2023-03-17T18:00:19.554Z,2.66
2023-03-17T18:02:46.224Z,2.71
2023-03-17T18:05:13.368Z,2.82
2023-03-17T18:07:40.779Z,2.78
2023-03-17T18:10:08.068Z,2.53
2023-03-17T18:12:34.700Z,2.82
2023-03-17T18:15:01.373Z,3.06
2023-03-17T18:17:29.601Z,3.10
2023-03-17T18:19:57.402Z,3.15
2023-03-17T18:22:24.040Z,4.65
2023-03-17T18:24:53.740Z,2.81
2023-03-17T18:27:20.387Z,2.79
2023-03-17T18:29:47.502Z,2.76
2023-03-17T18:32:14.202Z,2.59
2023-03-17T18:34:45.861Z,2.82
2023-03-17T18:37:16.482Z,2.58
2023-03-17T18:39:43.908Z,2.58
2023-03-17T18:42:11.587Z,2.61
2023-03-17T18:44:38.991Z,2.42
2023-03-17T18:47:05.753Z,2.57
2023-03-17T18:49:32.377Z,2.57
2023-03-17T18:51:59.510Z,2.76
2023-03-17T18:54:27.560Z,2.35
2023-03-17T18:56:54.780Z,2.59
2023-03-17T18:59:21.563Z,2.34
2023-03-17T19:01:48.253Z,2.61
2023-03-17T19:04:15.217Z,2.39
2023-03-17T19:06:41.896Z,2.68
2023-03-17T19:09:10.137Z,3.23
2023-03-17T19:11:38.134Z,3.30
2023-03-17T19:14:06.576Z,2.73
2023-03-17T19:16:34.048Z,2.86
2023-03-17T19:19:00.933Z,2.97
2023-03-17T19:21:28.373Z,2.72
2023-03-17T19:23:59.191Z,3.27
2023-03-17T19:26:26.537Z,3.04
2023-03-17T19:28:53.300Z,2.57
2023-03-17T19:31:23.292Z,2.45
2023-03-17T19:33:51.548Z,2.28
2023-03-17T19:36:19.350Z,2.63
2023-03-17T19:38:51.865Z,2.42
2023-03-17T19:41:20.655Z,2.59
2023-03-17T19:43:47.719Z,2.91
2023-03-17T19:46:14.496Z,2.64
2023-03-17T19:48:41.294Z,2.66
2023-03-17T19:51:08.014Z,2.66
2023-03-17T19:53:34.857Z,2.76
2023-03-17T19:56:01.550Z,2.59
2023-03-17T19:58:29.388Z,2.82
2023-03-17T20:00:56.068Z,2.65
2023-03-17T20:03:25.590Z,2.69
2023-03-17T20:05:53.175Z,2.48
2023-03-17T20:08:19.839Z,2.46
2023-03-17T20:10:53.655Z,2.42
2023-03-17T20:13:22.019Z,2.52
2023-03-17T20:15:48.977Z,2.44
2023-03-17T20:18:15.769Z,2.28
2023-03-17T20:20:51.023Z,2.86
2023-03-17T20:23:18.045Z,2.76
2023-03-17T20:25:45.181Z,2.63
2023-03-17T20:28:12.384Z,2.98
2023-03-17T20:30:39.914Z,2.68
2023-03-17T20:33:07.257Z,2.65
2023-03-17T20:35:35.119Z,2.87
2023-03-17T20:38:02.730Z,2.73
2023-03-17T20:40:29.657Z,3.10
2023-03-17T20:42:56.502Z,2.84
2023-03-17T20:45:23.117Z,3.17
2023-03-17T20:47:49.846Z,3.01
2023-03-17T20:50:17.464Z,2.65
2023-03-17T20:52:44.303Z,2.63
2023-03-17T20:55:11.482Z,2.59
2023-03-17T20:57:38.221Z,2.93
2023-03-17T21:00:25.005Z,3.00
2023-03-17T21:02:53.249Z,2.90
2023-03-17T21:05:39.953Z,3.36
2023-03-17T21:08:26.651Z,2.97
2023-03-17T21:11:18.105Z,3.26
2023-03-17T21:13:44.883Z,3.41
2023-03-17T21:16:30.943Z,3.10
2023-03-17T21:18:57.623Z,2.68
2023-03-17T21:21:24.870Z,2.98
2023-03-17T21:23:51.891Z,2.78
2023-03-17T21:26:19.008Z,2.96
2023-03-17T21:28:46.303Z,2.77
2023-03-17T21:31:13.592Z,3.05
2023-03-17T21:33:40.452Z,2.78
2023-03-17T21:36:07.679Z,3.21
2023-03-17T21:38:34.740Z,2.97
2023-03-17T21:41:29.725Z,2.90
2023-03-17T21:43:56.684Z,2.98
2023-03-17T21:46:23.585Z,2.74
2023-03-17T21:48:50.225Z,3.04
2023-03-17T21:51:16.951Z,2.94
2023-03-17T21:53:43.676Z,3.29
2023-03-17T21:56:12.452Z,2.97
2023-03-17T21:58:39.683Z,3.05
2023-03-17T22:01:06.417Z,3.31
2023-03-17T22:03:35.496Z,3.07
2023-03-17T22:06:03.958Z,3.12
2023-03-17T22:08:30.851Z,2.86
2023-03-17T22:10:57.537Z,3.00
2023-03-17T22:13:24.521Z,2.90
2023-03-17T22:15:53.119Z,3.14
2023-03-17T22:18:19.761Z,2.81
2023-03-17T22:20:46.354Z,2.68
2023-03-17T22:23:12.953Z,2.64
2023-03-17T22:25:39.567Z,2.65
2023-03-17T22:28:06.225Z,2.74
2023-03-17T22:30:33.128Z,3.04
2023-03-17T22:32:59.954Z,3.13
2023-03-17T22:35:26.753Z,3.01
2023-03-17T22:37:53.374Z,2.73
2023-03-17T22:40:19.995Z,2.33
2023-03-17T22:42:46.623Z,2.60
2023-03-17T22:45:13.347Z,2.97
2023-03-17T22:47:40.105Z,2.80
2023-03-17T22:50:10.373Z,2.70
2023-03-17T22:52:37.044Z,2.59
2023-03-17T22:55:03.822Z,2.67
2023-03-17T22:57:30.852Z,2.85
2023-03-17T22:59:57.840Z,2.95
2023-03-17T23:02:25.430Z,3.08
2023-03-17T23:04:52.550Z,2.92
2023-03-17T23:07:20.511Z,2.99
2023-03-17T23:09:47.246Z,2.77
2023-03-17T23:12:13.928Z,2.76
2023-03-17T23:14:40.531Z,2.46
2023-03-17T23:17:07.195Z,2.62
2023-03-17T23:19:33.882Z,2.39
2023-03-17T23:22:00.515Z,2.54
2023-03-17T23:24:27.132Z,2.36
2023-03-17T23:26:53.736Z,2.76
2023-03-17T23:29:21.349Z,2.34
2023-03-17T23:31:47.998Z,2.22
2023-03-17T23:34:14.618Z,2.36
2023-03-17T23:36:41.316Z,2.61
2023-03-17T23:39:08.928Z,2.43
2023-03-17T23:41:35.745Z,7.17
2023-03-17T23:44:02.345Z,4.20
2023-03-17T23:46:29.116Z,2.84
2023-03-17T23:48:55.836Z,2.58
2023-03-17T23:51:22.487Z,2.38
2023-03-17T23:53:49.126Z,2.51
2023-03-17T23:56:17.408Z,2.52
2023-03-17T23:58:44.040Z,2.22
